Time;durP1;ratioP1;P1;durP2;ratioP2;P2;SDS_P1;SDS_P2;PMS_P1;PMS_P2;Temp;Humidity;BMP_temperature;BMP_pressure;BME280_temperature;BME280_humidity;BME280_pressure;Samples;Min_cycle;Max_cycle;Signal;HPM_P1;HPM_P2
2021/12/04 00:02:50;;;;;;;97.47;40.80;;;25.90;2201.60;;;;;;4841164;29;20045;-85
2021/12/04 00:30:35;;;;;;;38.43;17.83;;;0.70;2201.60;;;;;;5866574;24;20026;-84
2021/12/04 00:34:03;;;;;;;39.53;19.10;;;0.70;2201.60;;;;;;4847917;29;20062;-85
2021/12/04 00:37:45;;;;;;;34.70;19.10;;;25.60;2201.60;;;;;;4834145;29;20046;-85
2021/12/04 00:49:18;;;;;;;63.57;30.43;;;0.90;2201.60;;;;;;4729787;30;20059;-85
2021/12/04 00:52:10;;;;;;;68.77;34.27;;;0.80;2201.60;;;;;;4712887;30;20037;-85
2021/12/04 01:16:11;;;;;;;54.17;27.33;;;0.40;2201.60;;;;;;5627763;23;20061;-85
2021/12/04 02:01:32;;;;;;;33.00;17.77;;;0.70;2201.60;;;;;;5883543;23;20061;-84
2021/12/04 02:04:25;;;;;;;35.37;17.87;;;0.70;2201.60;;;;;;4866618;29;20114;-84
2021/12/04 02:07:15;;;;;;;30.67;18.13;;;0.80;2201.60;;;;;;4805581;29;20038;-84
2021/12/04 02:09:47;;;;;;;35.47;17.50;;;0.70;2201.60;;;;;;4837486;29;20041;-84
2021/12/04 02:12:31;;;;;;;36.20;18.67;;;0.80;2201.60;;;;;;4851208;29;20022;-83
2021/12/04 02:22:08;;;;;;;34.17;19.30;;;0.70;2201.60;;;;;;4811414;29;20050;-82
2021/12/04 02:24:48;;;;;;;35.33;22.37;;;0.80;2201.60;;;;;;4807186;30;20102;-84
2021/12/04 02:28:33;;;;;;;32.63;18.70;;;0.60;2201.60;;;;;;4779755;29;20047;-84
2021/12/04 02:31:00;;;;;;;35.85;19.48;;;0.60;2201.60;;;;;;4791058;29;20028;-85
2021/12/04 02:33:40;;;;;;;39.73;19.03;;;25.80;2201.60;;;;;;4756622;30;20077;-85
2021/12/04 03:02:23;;;;;;;35.40;18.30;;;0.70;2201.60;;;;;;5680271;24;20780;-85
2021/12/04 03:05:31;;;;;;;36.97;18.70;;;0.70;2201.60;;;;;;4880323;29;20034;-85
2021/12/04 03:08:25;;;;;;;33.47;17.00;;;0.80;2201.60;;;;;;4868814;29;20009;-84
2021/12/04 03:11:16;;;;;;;32.33;17.47;;;0.50;2201.60;;;;;;4884576;29;20041;-85
2021/12/04 03:17:17;;;;;;;31.50;17.67;;;0.50;2201.60;;;;;;4866000;29;20052;-85
2021/12/04 03:20:18;;;;;;;31.90;18.30;;;0.90;2201.60;;;;;;4821297;29;20059;-84
2021/12/04 03:23:41;;;;;;;30.70;18.33;;;0.90;2201.60;;;;;;4815814;29;20087;-85
2021/12/04 03:26:52;;;;;;;32.53;16.93;;;0.90;2201.60;;;;;;4840305;29;20030;-85
2021/12/04 03:29:42;;;;;;;34.30;18.40;;;0.80;2201.60;;;;;;4865128;29;20022;-86
2021/12/04 08:07:20;;;;;;;65.70;35.97;;;51.40;2227.20;;;;;;2510490;24;20085;-84
2021/12/04 08:10:21;;;;;;;70.77;35.67;;;51.50;2227.20;;;;;;4862784;29;20106;-84
2021/12/04 08:13:02;;;;;;;56.70;32.00;;;51.40;2227.20;;;;;;4853627;29;20075;-84
2021/12/04 08:15:59;;;;;;;61.10;32.43;;;51.60;2227.20;;;;;;4833149;29;20026;-85
2021/12/04 08:19:19;;;;;;;62.17;36.73;;;51.70;2227.20;;;;;;4846582;29;20122;-85
2021/12/04 08:22:22;;;;;;;61.03;31.17;;;51.90;2227.20;;;;;;4790124;30;20027;-84
2021/12/04 08:25:01;;;;;;;54.57;29.70;;;51.90;2227.20;;;;;;4790965;30;20028;-85
2021/12/04 08:28:30;;;;;;;62.67;34.07;;;51.90;2227.20;;;;;;4749304;30;20040;-84
2021/12/04 08:31:08;;;;;;;63.47;34.40;;;52.00;2227.20;;;;;;4786000;30;20046;-85
2021/12/04 08:33:36;;;;;;;55.40;32.37;;;52.10;2227.20;;;;;;4808629;30;20043;-85
2021/12/04 08:36:36;;;;;;;47.43;29.87;;;51.90;2227.20;;;;;;4804059;29;20012;-84
2021/12/04 08:39:27;;;;;;;76.53;35.57;;;76.90;2227.20;;;;;;4794518;29;20067;-85
2021/12/04 08:42:58;;;;;;;74.03;35.23;;;76.80;2227.20;;;;;;4778909;30;20047;-85
2021/12/04 08:46:20;;;;;;;67.93;29.77;;;76.80;2227.20;;;;;;4779976;30;20047;-84
2021/12/04 08:49:48;;;;;;;53.57;29.07;;;76.90;2227.20;;;;;;4781425;30;20039;-84
2021/12/04 08:52:17;;;;;;;;;;;77.00;2227.20;;;;;;4797279;30;20035;-84
2021/12/04 08:55:13;;;;;;;40.03;23.73;;;77.10;2227.20;;;;;;4810867;30;19916;-84
2021/12/04 08:58:27;;;;;;;39.08;23.42;;;77.20;2227.20;;;;;;4845374;29;20015;-84
2021/12/04 09:01:23;;;;;;;36.83;21.07;;;77.40;2227.20;;;;;;4852946;29;20014;-83
2021/12/04 09:03:59;;;;;;;33.20;21.90;;;77.30;2227.20;;;;;;4848066;29;20052;-84
2021/12/04 09:06:46;;;;;;;47.00;24.70;;;77.50;2227.20;;;;;;4879902;24;20033;-85
2021/12/04 09:09:45;;;;;;;37.83;23.60;;;102.40;2227.20;;;;;;4882204;29;20038;-85
2021/12/04 09:14:47;;;;;;;41.07;23.60;;;102.80;2227.20;;;;;;4864106;29;20053;-85
2021/12/04 09:17:42;;;;;;;38.00;23.63;;;102.90;2227.20;;;;;;4835082;29;20046;-85
2021/12/04 09:20:27;;;;;;;45.10;26.70;;;102.90;2227.20;;;;;;4835348;29;20030;-85
2021/12/04 09:23:26;;;;;;;46.70;29.07;;;102.90;2227.20;;;;;;4849365;29;20022;-85
2021/12/04 09:26:01;;;;;;;71.23;39.30;;;103.00;2227.20;;;;;;4855989;29;20013;-84
2021/12/04 09:28:54;;;;;;;73.73;42.03;;;103.20;2227.20;;;;;;4850079;29;20034;-85
2021/12/04 10:00:07;;;;;;;65.57;34.92;;;384.10;1280.00;;;;;;4860254;29;20032;-91
2021/12/04 10:16:52;;;;;;;40.67;23.02;;;359.00;1203.20;;;;;;4862975;29;20509;-88
2021/12/04 10:33:43;;;;;;;41.00;26.25;;;359.10;1203.20;;;;;;4861056;29;20086;-88
2021/12/04 10:36:10;;;;;;;42.08;26.67;;;333.20;1280.00;;;;;;4840335;29;20026;-87
2021/12/04 10:38:43;;;;;;;42.80;27.17;;;307.80;1356.80;;;;;;4844316;29;20030;-87
2021/12/04 10:41:13;;;;;;;44.25;27.33;;;332.90;1356.80;;;;;;4842443;29;20037;-87
2021/12/04 10:43:39;;;;;;;39.10;26.58;;;333.30;1305.60;;;;;;4843957;29;20475;-87
2021/12/04 10:46:16;;;;;;;45.60;28.80;;;332.80;1331.20;;;;;;4845085;29;20097;-85
2021/12/04 10:48:51;;;;;;;43.38;27.17;;;307.70;1408.00;;;;;;4858881;29;20065;-84
2021/12/04 10:51:25;;;;;;;44.63;26.15;;;333.20;1356.80;;;;;;4858505;29;20056;-85
2021/12/04 10:53:55;;;;;;;48.45;29.75;;;333.70;1280.00;;;;;;4842943;29;20026;-87
2021/12/04 11:02:15;;;;;;;41.20;26.55;;;359.00;1228.80;;;;;;4861093;29;20056;-86
2021/12/04 11:04:56;;;;;;;34.20;23.85;;;358.90;1254.40;;;;;;4833497;29;20029;-86
2021/12/04 13:19:55;;;;;;;41.17;26.10;;;308.10;1612.80;;;;;;996643;23;21646;-86
2021/12/04 13:22:25;;;;;;;47.53;26.85;;;333.60;1536.00;;;;;;4808532;29;20062;-87
2021/12/04 13:24:54;;;;;;;40.88;25.65;;;333.40;1510.40;;;;;;4810335;29;20033;-86
2021/12/04 13:29:51;;;;;;;97.82;57.80;;;358.60;1484.80;;;;;;4826917;29;20114;-87
2021/12/04 13:32:26;;;;;;;53.03;35.25;;;384.10;1382.40;;;;;;4825303;29;20392;-87
2021/12/04 13:34:52;;;;;;;40.35;26.75;;;409.70;1331.20;;;;;;4806910;29;20030;-89
2021/12/04 13:37:25;;;;;;;43.15;27.98;;;435.30;1254.40;;;;;;4822015;29;20117;-86
2021/12/04 13:39:57;;;;;;;33.17;22.35;;;460.90;1177.60;;;;;;4810235;29;20113;-86
2021/12/04 13:42:24;;;;;;;41.70;26.13;;;461.50;1152.00;;;;;;4806421;29;20090;-86
2021/12/04 13:44:56;;;;;;;31.95;24.27;;;461.60;1152.00;;;;;;4808551;29;20059;-86
2021/12/04 13:47:22;;;;;;;46.15;29.55;;;461.00;1152.00;;;;;;4823279;29;20483;-85
2021/12/04 13:49:54;;;;;;;49.53;33.83;;;435.60;1203.20;;;;;;4801272;29;20030;-85
2021/12/04 13:52:21;;;;;;;39.17;29.40;;;410.50;1254.40;;;;;;4803116;29;20045;-86
2021/12/04 13:54:51;;;;;;;41.50;28.95;;;435.70;1203.20;;;;;;4800073;29;20031;-86
2021/12/04 13:57:17;;;;;;;40.38;28.42;;;435.50;1228.80;;;;;;4820974;29;20066;-86
2021/12/04 13:59:43;;;;;;;39.33;27.17;;;435.40;1228.80;;;;;;4808898;29;20030;-85
2021/12/04 14:02:25;;;;;;;41.72;28.92;;;410.40;1254.40;;;;;;4799781;29;20407;-86
2021/12/04 14:05:20;;;;;;;39.50;29.00;;;384.90;1280.00;;;;;;4822936;29;20034;-86
2021/12/04 14:07:56;;;;;;;45.85;30.42;;;358.60;1433.60;;;;;;4794679;29;20035;-85
2021/12/04 14:10:26;;;;;;;49.70;33.33;;;308.10;1536.00;;;;;;4821954;29;20034;-86
2021/12/04 14:12:54;;;;;;;56.70;35.60;;;307.20;1612.80;;;;;;4808980;29;20022;-86
2021/12/04 14:15:22;;;;;;;51.38;31.90;;;281.70;1664.00;;;;;;4806005;29;20369;-87
2021/12/04 14:17:58;;;;;;;54.38;34.55;;;256.60;1715.20;;;;;;4824204;29;20032;-88
2021/12/04 14:20:25;;;;;;;53.17;33.45;;;256.00;1817.60;;;;;;4809470;29;20042;-86
2021/12/04 14:22:54;;;;;;;49.45;30.38;;;231.00;1843.20;;;;;;4809368;29;20040;-88
2021/12/04 15:20:32;;;;;;;68.10;41.38;;;153.60;2252.80;;;;;;4899434;24;20062;-83
2021/12/04 15:23:05;;;;;;;73.82;42.85;;;128.90;2252.80;;;;;;4878938;29;20048;-84
2021/12/04 15:25:40;;;;;;;80.63;45.88;;;128.90;2252.80;;;;;;4880269;29;20070;-85
2021/12/04 15:28:22;;;;;;;83.47;46.88;;;128.80;2252.80;;;;;;4880239;29;20020;-84
2021/12/04 15:30:53;;;;;;;57.40;34.83;;;128.70;2252.80;;;;;;4878705;29;20045;-83
2021/12/04 15:33:31;;;;;;;51.67;31.83;;;128.60;2252.80;;;;;;4864585;29;20034;-84
2021/12/04 15:35:59;;;;;;;47.05;30.27;;;128.60;2252.80;;;;;;4882621;29;20029;-83
2021/12/04 15:38:51;;;;;;;52.20;30.50;;;128.50;2252.80;;;;;;4882795;29;20033;-84
2021/12/04 15:41:44;;;;;;;49.20;30.65;;;128.50;2252.80;;;;;;4874202;29;20113;-83
2021/12/04 15:53:09;;;;;;;92.18;52.28;;;128.30;2252.80;;;;;;4873954;29;20041;-84
2021/12/04 15:55:53;;;;;;;116.57;63.38;;;128.20;2252.80;;;;;;4878961;29;20042;-84
2021/12/04 15:58:40;;;;;;;129.65;73.70;;;128.20;2252.80;;;;;;4878643;29;20039;-84
2021/12/04 16:01:09;;;;;;;168.00;85.22;;;128.10;2252.80;;;;;;4883005;29;20009;-84
2021/12/04 16:03:41;;;;;;;133.93;70.07;;;128.10;2252.80;;;;;;4865357;29;20038;-84
2021/12/04 16:06:15;;;;;;;159.95;83.50;;;128.10;2252.80;;;;;;4865710;29;20589;-84
2021/12/04 16:09:11;;;;;;;125.70;70.07;;;128.10;2252.80;;;;;;4880934;29;20025;-84
2021/12/04 16:11:42;;;;;;;158.13;84.03;;;128.00;2252.80;;;;;;4885073;29;20017;-85
2021/12/04 16:14:14;;;;;;;154.20;79.67;;;128.00;2252.80;;;;;;4868355;29;20038;-84
2021/12/04 16:17:15;;;;;;;340.45;160.77;;;128.10;2252.80;;;;;;4881893;29;20029;-84
2021/12/04 16:20:07;;;;;;;191.93;97.50;;;103.30;2227.20;;;;;;4884038;29;20082;-84
2021/12/04 16:22:48;;;;;;;71.27;41.93;;;103.30;2227.20;;;;;;4842887;29;20042;-84
2021/12/04 16:25:36;;;;;;;300.73;138.73;;;103.20;2227.20;;;;;;4883093;29;20032;-84
2021/12/04 16:31:40;;;;;;;117.20;64.67;;;103.10;2227.20;;;;;;4791712;30;20541;-84
2021/12/04 16:37:33;;;;;;;;;;;103.10;2227.20;;;;;;4762838;30;20052;-83
2021/12/04 16:40:34;;;;;;;65.45;35.33;;;103.10;2227.20;;;;;;4773125;30;19914;-84
2021/12/04 16:43:13;;;;;;;76.65;40.47;;;103.00;2227.20;;;;;;4773092;30;20123;-84
2021/12/04 16:45:46;;;;;;;82.03;42.80;;;103.00;2227.20;;;;;;4773822;30;20037;-84
2021/12/04 16:48:18;;;;;;;85.82;45.90;;;103.00;2227.20;;;;;;4773102;30;20076;-84
2021/12/04 16:59:49;;;;;;;242.67;106.33;;;103.00;2227.20;;;;;;4738886;30;20110;-84
2021/12/04 17:02:29;;;;;;;131.73;64.30;;;102.90;2227.20;;;;;;4756895;30;20065;-85
2021/12/04 17:05:07;;;;;;;95.13;48.47;;;102.90;2227.20;;;;;;4757892;30;20139;-85
2021/12/04 17:07:35;;;;;;;97.90;48.05;;;102.90;2227.20;;;;;;4773532;30;20046;-85
2021/12/04 17:10:02;;;;;;;105.13;50.25;;;102.80;2227.20;;;;;;4769896;30;20052;-80
2021/12/04 17:12:33;;;;;;;160.23;72.83;;;103.00;2227.20;;;;;;4771430;30;20036;-84
2021/12/04 17:15:03;;;;;;;105.50;52.17;;;102.90;2227.20;;;;;;4724188;30;20057;-84
2021/12/04 17:17:31;;;;;;;100.35;50.35;;;102.80;2227.20;;;;;;4724072;30;20053;-85
2021/12/04 17:20:02;;;;;;;80.27;46.17;;;102.80;2227.20;;;;;;4737793;30;20099;-84
2021/12/04 17:22:32;;;;;;;135.17;66.13;;;102.80;2227.20;;;;;;4708338;30;20057;-84
2021/12/04 17:25:01;;;;;;;182.53;79.27;;;102.80;2227.20;;;;;;4739440;30;20025;-85
2021/12/04 17:27:35;;;;;;;144.40;64.53;;;102.80;2227.20;;;;;;4724448;30;20052;-83
2021/12/04 17:30:03;;;;;;;127.53;57.33;;;102.70;2227.20;;;;;;4748015;30;20044;-84
2021/12/04 17:32:31;;;;;;;211.77;95.07;;;102.70;2227.20;;;;;;4806476;30;20541;-83
2021/12/04 17:34:57;;;;;;;259.83;118.00;;;102.70;2227.20;;;;;;4793428;30;20058;-84
2021/12/04 17:37:29;;;;;;;98.38;50.72;;;102.50;2227.20;;;;;;4807166;30;20032;-83
2021/12/04 17:39:58;;;;;;;69.43;37.97;;;102.60;2227.20;;;;;;4826141;29;20492;-83
2021/12/04 17:42:26;;;;;;;64.07;34.77;;;102.60;2227.20;;;;;;4845435;29;20046;-83
2021/12/04 17:44:57;;;;;;;63.90;34.57;;;102.60;2227.20;;;;;;4845315;29;20026;-82
2021/12/04 17:47:27;;;;;;;73.53;41.00;;;102.60;2227.20;;;;;;4845659;29;20085;-82
2021/12/04 17:49:54;;;;;;;69.90;36.77;;;102.60;2227.20;;;;;;4846449;29;20046;-83
2021/12/04 17:52:20;;;;;;;66.80;38.60;;;102.60;2227.20;;;;;;4845852;29;20069;-82
2021/12/04 17:54:46;;;;;;;75.10;42.77;;;102.60;2227.20;;;;;;4844594;29;20061;-81
2021/12/04 17:57:13;;;;;;;84.40;48.13;;;77.50;2227.20;;;;;;4846101;29;20030;-81
2021/12/04 17:59:39;;;;;;;85.40;45.07;;;102.60;2227.20;;;;;;4874548;29;20061;-83
2021/12/04 18:02:11;;;;;;;100.13;52.33;;;102.60;2227.20;;;;;;4879128;29;20509;-82
2021/12/04 18:04:42;;;;;;;128.33;62.73;;;102.50;2227.20;;;;;;4879631;29;20029;-82
2021/12/04 18:07:14;;;;;;;121.43;61.43;;;102.50;2227.20;;;;;;4877872;29;20070;-82
2021/12/04 18:09:45;;;;;;;129.33;64.37;;;102.50;2227.20;;;;;;4863631;29;20029;-82
2021/12/04 18:12:21;;;;;;;176.50;86.03;;;102.50;2227.20;;;;;;4880620;29;20144;-82
2021/12/04 18:14:50;;;;;;;150.17;75.60;;;102.40;2227.20;;;;;;4879274;29;20033;-82
2021/12/04 18:17:17;;;;;;;110.40;56.97;;;102.40;2227.20;;;;;;4879019;29;20022;-82
2021/12/04 18:19:44;;;;;;;75.93;42.40;;;102.40;2227.20;;;;;;4848583;29;20075;-82
2021/12/04 18:22:11;;;;;;;67.00;38.97;;;102.40;2227.20;;;;;;4878886;29;20041;-82
2021/12/04 18:24:42;;;;;;;77.95;45.92;;;102.40;2227.20;;;;;;4879523;29;20467;-83
2021/12/04 18:27:09;;;;;;;93.67;53.37;;;102.40;2227.20;;;;;;4862346;29;20347;-82
2021/12/04 18:29:38;;;;;;;89.67;53.43;;;102.40;2227.20;;;;;;4861056;29;20033;-83
2021/12/04 18:32:09;;;;;;;86.43;50.53;;;77.70;2227.20;;;;;;4873467;29;20097;-83
2021/12/04 18:34:37;;;;;;;84.73;47.43;;;77.70;2227.20;;;;;;4880185;29;20030;-82
2021/12/04 18:37:06;;;;;;;79.47;45.35;;;77.60;2227.20;;;;;;4881444;29;20081;-83
2021/12/04 18:39:33;;;;;;;80.87;46.43;;;76.80;2227.20;;;;;;4876593;29;20028;-83
2021/12/04 18:42:05;;;;;;;126.37;63.47;;;77.60;2227.20;;;;;;4880904;29;20051;-84
2021/12/04 18:44:39;;;;;;;106.40;57.70;;;77.60;2227.20;;;;;;4865957;29;20041;-83
2021/12/04 18:47:11;;;;;;;82.63;49.40;;;77.60;2227.20;;;;;;4879156;29;20065;-83
2021/12/04 18:49:46;;;;;;;83.73;49.50;;;77.60;2227.20;;;;;;4881789;29;20026;-84
2021/12/04 18:52:14;;;;;;;107.03;56.88;;;77.60;2227.20;;;;;;4880690;29;20067;-84
2021/12/04 18:54:42;;;;;;;127.20;65.97;;;77.60;2227.20;;;;;;4876122;29;20068;-83
2021/12/04 18:57:14;;;;;;;131.93;66.73;;;77.60;2227.20;;;;;;4880526;29;20054;-83
2021/12/04 19:00:03;;;;;;;141.75;76.35;;;77.60;2227.20;;;;;;4865512;29;20033;-84
2021/12/04 19:02:43;;;;;;;148.77;76.07;;;77.70;2227.20;;;;;;4873561;29;20053;-83
2021/12/04 19:05:18;;;;;;;150.10;75.33;;;77.60;2227.20;;;;;;4867353;29;20033;-82
2021/12/04 19:07:50;;;;;;;165.60;84.70;;;77.70;2227.20;;;;;;4881538;29;20111;-83
2021/12/04 19:10:26;;;;;;;183.40;94.57;;;77.60;2227.20;;;;;;4862787;29;20068;-84
2021/12/04 19:13:45;;;;;;;176.30;90.07;;;77.30;2227.20;;;;;;4873120;29;20077;-84
2021/12/04 19:16:18;;;;;;;140.10;77.27;;;77.50;2227.20;;;;;;4882109;29;20038;-84
2021/12/04 19:18:56;;;;;;;159.77;85.03;;;77.60;2227.20;;;;;;4882016;29;20044;-84
2021/12/04 19:21:31;;;;;;;144.57;78.20;;;77.50;2227.20;;;;;;4882187;29;20040;-84
2021/12/04 19:23:59;;;;;;;165.45;84.82;;;77.50;2227.20;;;;;;4884406;29;20016;-85
2021/12/04 19:26:52;;;;;;;188.33;97.27;;;77.50;2227.20;;;;;;4901090;29;20036;-83
2021/12/04 19:29:45;;;;;;;164.82;92.10;;;77.50;2227.20;;;;;;4880255;29;20115;-84
2021/12/04 19:32:29;;;;;;;151.50;84.97;;;77.50;2227.20;;;;;;4876925;29;20055;-84
2021/12/04 19:55:36;;;;;;;112.03;62.77;;;77.50;2227.20;;;;;;4855049;29;20048;-84
2021/12/04 19:58:47;;;;;;;110.90;58.90;;;77.40;2227.20;;;;;;4820157;29;20034;-84
2021/12/04 20:01:46;;;;;;;101.47;55.67;;;77.40;2227.20;;;;;;4850202;29;20025;-84
2021/12/04 20:08:05;;;;;;;102.27;58.23;;;77.40;2227.20;;;;;;4896710;29;20023;-84
2021/12/04 20:16:29;;;;;;;125.47;70.27;;;77.40;2227.20;;;;;;4901649;29;20053;-84
2021/12/04 20:19:18;;;;;;;117.40;66.30;;;77.30;2227.20;;;;;;4897299;29;20049;-84
2021/12/04 20:21:58;;;;;;;144.63;80.27;;;77.30;2227.20;;;;;;4870117;29;20040;-84
2021/12/04 20:24:35;;;;;;;125.07;70.43;;;77.30;2227.20;;;;;;4885385;29;20045;-83
2021/12/04 20:27:20;;;;;;;187.40;94.07;;;77.30;2227.20;;;;;;4887711;29;20041;-84
2021/12/04 21:06:24;;;;;;;214.80;112.60;;;77.40;2227.20;;;;;;4903524;29;20048;-84
2021/12/04 21:12:34;;;;;;;101.37;57.97;;;77.30;2227.20;;;;;;4903451;29;20074;-83
2021/12/04 21:50:05;;;;;;;105.17;55.37;;;77.30;2227.20;;;;;;4902991;29;20049;-84
2021/12/04 21:53:16;;;;;;;107.00;53.80;;;77.40;2227.20;;;;;;4902727;29;20040;-84
2021/12/04 22:10:41;;;;;;;97.00;52.90;;;77.40;2227.20;;;;;;4814688;29;20068;-84
2021/12/04 22:20:19;;;;;;;83.03;47.87;;;77.50;2227.20;;;;;;4827684;29;20042;-83
2021/12/04 23:14:02;;;;;;;80.40;46.63;;;77.60;2227.20;;;;;;4846339;29;20117;-86
2021/12/04 23:38:10;;;;;;;73.93;42.97;;;102.40;2227.20;;;;;;4844302;29;20073;-87
